createdAt,value
2019-04-28T00:02:08.573Z,9.22
2019-04-28T00:04:39.034Z,9.26
2019-04-28T00:07:09.555Z,9.21
2019-04-28T05:32:20.878Z,8.30
2019-04-28T05:34:52.956Z,8.29
2019-04-28T05:37:23.612Z,8.37
2019-04-28T05:39:54.112Z,8.23
2019-04-28T05:42:24.642Z,8.22
2019-04-28T05:45:14.333Z,8.28
2019-04-28T05:47:44.780Z,8.26
2019-04-28T05:53:37.394Z,8.32
2019-04-28T05:56:15.880Z,8.36
2019-04-28T05:58:52.852Z,8.25
2019-04-28T06:01:51.526Z,8.30
2019-04-28T06:04:25.522Z,8.22
2019-04-28T06:07:00.319Z,8.13
2019-04-28T06:09:35.678Z,8.16
2019-04-28T06:12:10.191Z,8.19
2019-04-28T06:14:40.588Z,8.32
2019-04-28T06:17:11.061Z,8.32
2019-04-28T06:19:41.659Z,8.22
2019-04-28T06:22:12.000Z,8.18
2019-04-28T06:24:42.489Z,8.21
2019-04-28T06:27:13.036Z,8.22
2019-04-28T06:29:43.494Z,8.22
2019-04-28T06:32:13.972Z,8.23
2019-04-28T06:34:44.503Z,8.18
2019-04-28T06:37:14.887Z,8.23
2019-04-28T06:39:47.303Z,8.33
2019-04-28T06:42:17.682Z,8.30
2019-04-28T06:44:48.197Z,8.32
2019-04-28T06:47:18.693Z,8.36
2019-04-28T06:49:49.211Z,8.43
2019-04-28T06:52:19.672Z,8.40
2019-04-28T06:54:50.165Z,8.41
2019-04-28T06:57:20.735Z,8.47
2019-04-28T06:59:51.216Z,8.39
2019-04-28T07:02:21.689Z,8.58
2019-04-28T07:05:01.632Z,8.42
2019-04-28T07:07:24.428Z,8.43
2019-04-28T07:09:54.902Z,8.49
2019-04-28T07:12:25.431Z,8.45
2019-04-28T07:14:55.928Z,8.52
2019-04-28T07:17:26.401Z,8.55
2019-04-28T07:20:04.600Z,8.60
2019-04-28T07:22:35.095Z,8.66
2019-04-28T07:25:05.594Z,8.58
2019-04-28T07:27:36.121Z,8.65
2019-04-28T07:30:07.358Z,8.58
2019-04-28T07:32:37.844Z,8.73
2019-04-28T07:35:08.389Z,8.69
2019-04-28T07:37:40.978Z,8.71
2019-04-28T07:40:11.559Z,8.68
2019-04-28T07:42:42.131Z,8.64
2019-04-28T07:45:12.688Z,8.75
2019-04-28T07:47:43.188Z,8.73
2019-04-28T07:50:13.803Z,8.80
2019-04-28T07:52:49.230Z,8.73
2019-04-28T07:55:19.730Z,8.88
2019-04-28T07:57:50.197Z,8.84
2019-04-28T08:00:27.320Z,8.79
2019-04-28T08:02:57.852Z,8.73
2019-04-28T08:05:28.290Z,8.76
2019-04-28T08:07:58.806Z,8.77
2019-04-28T08:10:29.338Z,8.84
2019-04-28T08:12:59.821Z,8.90
2019-04-28T08:15:30.327Z,8.97
2019-04-28T08:18:00.786Z,8.95
2019-04-28T08:20:31.182Z,8.92
2019-04-28T08:23:01.668Z,8.88
2019-04-28T08:25:32.220Z,8.93
2019-04-28T08:28:02.831Z,8.94
2019-04-28T08:30:33.754Z,8.96
2019-04-28T08:33:15.598Z,8.90
2019-04-28T08:35:46.106Z,8.88
2019-04-28T08:38:16.613Z,8.90
2019-04-28T08:40:47.016Z,8.86
2019-04-28T08:43:17.557Z,8.81
2019-04-28T08:45:48.023Z,8.87
2019-04-28T08:48:18.535Z,8.66
2019-04-28T08:50:49.041Z,8.76
2019-04-28T08:53:19.563Z,8.77
2019-04-28T08:55:50.064Z,8.89
2019-04-28T08:58:20.581Z,8.86
2019-04-28T09:00:51.109Z,8.94
2019-04-28T09:03:21.591Z,8.93
2019-04-28T09:05:52.190Z,8.88
2019-04-28T09:08:22.632Z,8.90
2019-04-28T09:10:53.090Z,8.90
2019-04-28T09:13:23.566Z,9.02
2019-04-28T09:15:53.953Z,8.88
2019-04-28T09:18:24.471Z,8.86
2019-04-28T09:20:54.971Z,8.89
2019-04-28T09:23:25.468Z,8.86
2019-04-28T09:25:55.928Z,8.83
2019-04-28T09:28:26.418Z,9.02
2019-04-28T09:30:56.883Z,8.70
2019-04-28T09:33:27.334Z,8.65
2019-04-28T09:35:57.894Z,8.72
2019-04-28T09:38:28.354Z,8.78
2019-04-28T09:40:58.916Z,8.70
2019-04-28T09:43:47.324Z,8.80
2019-04-28T09:46:21.601Z,8.63
2019-04-28T09:48:52.134Z,8.57
2019-04-28T09:51:22.674Z,8.76
2019-04-28T09:53:53.158Z,8.79
2019-04-28T09:56:23.682Z,8.71
2019-04-28T09:58:54.153Z,8.81
2019-04-28T10:01:24.626Z,8.67
2019-04-28T10:03:55.103Z,8.65
2019-04-28T10:06:25.601Z,8.68
2019-04-28T10:08:56.085Z,8.77
2019-04-28T10:11:30.589Z,8.72
2019-04-28T10:13:58.910Z,8.88
2019-04-28T10:16:29.379Z,8.73
2019-04-28T10:18:59.917Z,8.75
2019-04-28T10:21:30.379Z,8.67
2019-04-28T10:24:00.867Z,8.54
2019-04-28T10:26:31.456Z,8.55
2019-04-28T10:29:01.983Z,8.59
2019-04-28T10:31:32.485Z,8.62
2019-04-28T10:34:04.754Z,8.52
2019-04-28T10:36:36.669Z,8.35
2019-04-28T10:39:43.746Z,8.35
2019-04-28T10:42:14.206Z,8.42
2019-04-28T10:44:46.374Z,8.43
2019-04-28T10:47:17.705Z,8.34
2019-04-28T10:49:48.288Z,8.44
2019-04-28T10:52:18.931Z,8.49
2019-04-28T10:54:49.427Z,8.46
2019-04-28T10:57:19.894Z,8.40
2019-04-28T10:59:50.470Z,8.23
2019-04-28T11:02:20.970Z,8.23
2019-04-28T11:05:13.517Z,8.09
2019-04-28T11:07:44.466Z,8.13
2019-04-28T11:10:20.118Z,8.23
2019-04-28T11:12:53.037Z,8.32
2019-04-28T11:15:33.746Z,8.30
2019-04-28T11:18:06.434Z,8.49
2019-04-28T11:20:36.950Z,8.52
2019-04-28T11:23:07.449Z,8.67
2019-04-28T11:25:38.028Z,8.83
2019-04-28T11:28:08.784Z,9.01
2019-04-28T11:30:39.253Z,9.08
2019-04-28T11:33:27.700Z,9.34
2019-04-28T11:35:58.290Z,9.43
2019-04-28T11:38:28.782Z,9.45
2019-04-28T11:40:59.300Z,9.63
2019-04-28T11:43:29.790Z,9.54
2019-04-28T11:46:00.277Z,9.57
2019-04-28T11:48:30.795Z,9.51
2019-04-28T11:51:01.384Z,9.32
2019-04-28T11:53:31.882Z,9.22
2019-04-28T11:56:02.389Z,9.37
2019-04-28T11:58:32.984Z,9.42
2019-04-28T12:01:03.814Z,9.49
2019-04-28T12:03:34.336Z,9.94
2019-04-28T12:06:04.916Z,9.92
2019-04-28T12:08:35.389Z,9.89
2019-04-28T12:11:23.541Z,9.91
2019-04-28T12:14:19.193Z,10.09
2019-04-28T12:17:17.588Z,10.06
2019-04-28T12:19:54.122Z,10.43
2019-04-28T12:22:24.725Z,10.65
2019-04-28T12:24:55.261Z,10.75
2019-04-28T12:27:25.778Z,11.20
2019-04-28T12:29:56.400Z,10.63
2019-04-28T12:32:26.867Z,10.15
2019-04-28T12:34:57.331Z,10.15
2019-04-28T12:37:27.891Z,10.06
2019-04-28T12:39:58.391Z,10.08
2019-04-28T12:42:28.821Z,9.99
2019-04-28T12:44:59.382Z,9.96
2019-04-28T12:47:29.843Z,9.93
2019-04-28T12:50:06.113Z,10.29
2019-04-28T12:52:36.699Z,10.31
2019-04-28T12:55:07.589Z,10.37
2019-04-28T12:57:38.109Z,10.95
2019-04-28T13:00:27.868Z,10.48
2019-04-28T13:03:20.321Z,10.57
2019-04-28T13:06:02.372Z,10.51
2019-04-28T13:08:23.778Z,10.21
2019-04-28T13:10:54.565Z,10.48
2019-04-28T13:13:25.046Z,10.42
2019-04-28T13:15:55.529Z,10.35
2019-04-28T13:18:26.065Z,10.39
2019-04-28T13:20:58.964Z,10.52
2019-04-28T13:23:28.806Z,10.66
2019-04-28T13:25:59.408Z,10.61
2019-04-28T13:28:29.896Z,10.43
2019-04-28T13:31:00.413Z,10.53
2019-04-28T13:33:30.935Z,10.58
2019-04-28T13:36:13.791Z,10.59
2019-04-28T13:38:33.632Z,10.62
2019-04-28T13:41:04.145Z,10.41
2019-04-28T13:43:34.816Z,10.43
2019-04-28T13:46:05.429Z,10.68
2019-04-28T13:48:35.920Z,10.80
2019-04-28T13:51:06.395Z,10.88
2019-04-28T13:53:36.870Z,11.16
2019-04-28T13:56:07.387Z,11.39
2019-04-28T13:58:47.118Z,11.53
2019-04-28T14:01:39.652Z,11.69
2019-04-28T14:04:41.290Z,11.56
2019-04-28T14:07:11.818Z,11.05
2019-04-28T14:09:42.335Z,11.07
2019-04-28T14:12:12.840Z,11.29
2019-04-28T14:14:43.433Z,11.65
2019-04-28T14:17:13.944Z,11.50
2019-04-28T14:19:44.424Z,11.56
2019-04-28T14:22:14.889Z,11.52
2019-04-28T14:24:45.357Z,11.88
2019-04-28T14:27:15.874Z,12.00
2019-04-28T14:29:46.445Z,12.24
2019-04-28T14:32:16.935Z,12.46
2019-04-28T14:34:47.480Z,12.22
2019-04-28T14:37:18.054Z,12.19
2019-04-28T14:39:48.549Z,12.54
2019-04-28T14:42:19.148Z,13.24
2019-04-28T14:44:49.681Z,13.83
2019-04-28T14:47:20.161Z,13.55
2019-04-28T14:49:50.632Z,14.98
2019-04-28T14:52:21.171Z,15.81
2019-04-28T14:54:51.670Z,14.96
2019-04-28T14:57:22.151Z,14.77
2019-04-28T14:59:52.648Z,16.42
2019-04-28T15:02:33.162Z,16.24
2019-04-28T15:05:17.140Z,17.00
2019-04-28T15:08:00.838Z,17.97
2019-04-28T15:10:50.273Z,17.85
2019-04-28T15:13:22.184Z,17.32
2019-04-28T15:15:52.727Z,17.40
2019-04-28T15:18:23.263Z,17.38
2019-04-28T15:20:53.701Z,18.77
2019-04-28T15:23:24.234Z,17.87
2019-04-28T15:25:54.828Z,18.76
2019-04-28T15:28:25.306Z,19.33
2019-04-28T15:30:55.790Z,20.70
2019-04-28T15:33:26.293Z,22.43
2019-04-28T15:35:56.731Z,22.28
2019-04-28T15:38:27.159Z,22.65
2019-04-28T15:40:57.723Z,20.97
2019-04-28T15:43:28.220Z,20.76
2019-04-28T15:45:58.674Z,21.75
2019-04-28T15:48:29.167Z,21.53
2019-04-28T15:50:59.626Z,22.62
2019-04-28T15:53:30.391Z,21.14
2019-04-28T15:56:15.937Z,18.87
2019-04-28T15:58:46.427Z,18.34
2019-04-28T16:01:16.921Z,16.74
2019-04-28T16:03:47.439Z,18.77
2019-04-28T16:06:17.933Z,19.68
2019-04-28T16:08:48.399Z,19.23
2019-04-28T16:11:18.915Z,18.04
2019-04-28T16:13:49.335Z,19.27
2019-04-28T16:16:19.869Z,20.08
2019-04-28T16:18:50.331Z,20.02
2019-04-28T16:21:20.898Z,20.61
2019-04-28T16:23:51.366Z,19.91
2019-04-28T16:26:23.075Z,19.70
2019-04-28T16:28:53.691Z,20.65
2019-04-28T16:31:24.247Z,18.93
2019-04-28T16:33:54.750Z,19.25
2019-04-28T16:36:25.243Z,19.20
2019-04-28T16:38:55.808Z,19.11
2019-04-28T16:41:31.410Z,19.31
2019-04-28T16:44:01.895Z,19.44
2019-04-28T16:46:32.357Z,20.01
2019-04-28T16:49:02.854Z,19.63
2019-04-28T16:51:33.353Z,19.43
2019-04-28T16:54:03.832Z,19.63
2019-04-28T16:56:59.409Z,19.83
2019-04-28T16:59:43.297Z,20.10
2019-04-28T17:02:23.064Z,19.05
2019-04-28T17:04:53.594Z,19.48
2019-04-28T17:07:24.058Z,18.47
2019-04-28T17:09:54.573Z,18.52
2019-04-28T17:12:25.071Z,18.59
2019-04-28T17:14:55.581Z,18.73
2019-04-28T17:17:26.099Z,18.08
2019-04-28T17:19:56.585Z,17.59
2019-04-28T17:22:27.063Z,15.74
2019-04-28T17:24:57.599Z,15.33
2019-04-28T17:27:28.034Z,14.98
2019-04-28T17:29:58.534Z,14.11
2019-04-28T17:32:29.098Z,14.14
2019-04-28T17:34:59.660Z,14.14
2019-04-28T17:37:30.147Z,13.99
2019-04-28T17:40:00.756Z,13.85
2019-04-28T17:42:31.235Z,13.59
2019-04-28T17:45:01.766Z,13.80
2019-04-28T17:47:32.334Z,13.72
2019-04-28T17:50:02.861Z,13.56
2019-04-28T17:52:33.425Z,13.27
2019-04-28T17:55:04.224Z,12.97
2019-04-28T17:57:34.714Z,13.15
2019-04-28T18:00:12.718Z,13.04
2019-04-28T18:03:02.750Z,12.97
2019-04-28T18:05:41.189Z,12.73
2019-04-28T18:08:20.807Z,12.48
2019-04-28T18:10:43.871Z,12.26
2019-04-28T18:13:14.879Z,12.20
2019-04-28T18:16:12.008Z,12.29
2019-04-28T18:18:45.441Z,12.09
2019-04-28T18:21:15.967Z,12.14
2019-04-28T18:23:46.459Z,12.12
2019-04-28T18:26:17.037Z,11.96
2019-04-28T18:28:47.592Z,11.94
2019-04-28T18:31:37.072Z,11.63
2019-04-28T18:34:25.376Z,11.56
2019-04-28T18:37:21.049Z,11.46
2019-04-28T18:40:25.697Z,11.22
2019-04-28T18:43:11.824Z,11.30
2019-04-28T18:45:42.380Z,11.27
2019-04-28T18:48:12.955Z,11.13
2019-04-28T18:50:43.513Z,10.96
2019-04-28T18:53:14.101Z,10.95
2019-04-28T18:55:44.604Z,10.79
2019-04-28T18:58:15.178Z,10.75
2019-04-28T19:00:52.360Z,10.63
2019-04-28T19:03:23.578Z,10.60
2019-04-28T19:05:54.345Z,10.64
2019-04-28T19:08:48.454Z,10.57
2019-04-28T19:11:18.654Z,10.58
2019-04-28T19:13:53.822Z,10.42
2019-04-28T19:16:41.945Z,10.41
2019-04-28T19:19:13.737Z,10.32
2019-04-28T19:21:54.618Z,10.36
2019-04-28T19:24:26.216Z,10.39
2019-04-28T19:26:56.719Z,10.27
2019-04-28T19:29:27.775Z,10.29
2019-04-28T19:31:58.292Z,10.18
2019-04-28T19:34:28.865Z,10.10
2019-04-28T19:36:59.445Z,10.05
2019-04-28T19:39:30.004Z,10.03
2019-04-28T19:42:00.546Z,10.06
2019-04-28T19:44:31.059Z,9.97
2019-04-28T19:47:01.560Z,9.88
2019-04-28T19:49:32.035Z,9.93
2019-04-28T19:52:02.530Z,9.84
2019-04-28T19:54:36.576Z,9.78
2019-04-28T19:57:12.723Z,9.71
2019-04-28T20:00:00.940Z,9.62
2019-04-28T20:02:34.237Z,9.57
2019-04-28T20:05:05.049Z,9.50
2019-04-28T20:07:35.660Z,9.52
2019-04-28T20:10:06.799Z,9.47
2019-04-28T20:12:37.259Z,9.44
2019-04-28T20:15:07.967Z,9.35
2019-04-28T20:17:38.494Z,9.35
2019-04-28T20:20:09.165Z,9.30
2019-04-28T20:22:39.633Z,9.16
2019-04-28T20:25:10.216Z,9.12
2019-04-28T20:27:40.734Z,9.11
2019-04-28T20:30:11.627Z,9.08
2019-04-28T20:32:46.656Z,9.08
2019-04-28T20:35:21.682Z,9.03
2019-04-28T20:38:13.976Z,8.97
2019-04-28T20:40:50.794Z,8.93
2019-04-28T20:43:22.085Z,8.90
2019-04-28T20:45:52.628Z,8.92
2019-04-28T20:48:23.019Z,8.91
2019-04-28T20:50:53.553Z,8.88
2019-04-28T20:53:24.024Z,8.91
2019-04-28T20:55:54.514Z,8.87
2019-04-28T20:58:24.976Z,8.84
2019-04-28T21:00:55.450Z,8.84
2019-04-28T21:03:25.997Z,8.78
2019-04-28T21:05:56.485Z,8.70
2019-04-28T21:08:26.952Z,8.66
2019-04-28T21:10:57.475Z,8.67
2019-04-28T21:13:28.025Z,8.67
2019-04-28T21:15:58.489Z,8.63
2019-04-28T21:18:29.099Z,8.71
2019-04-28T21:20:59.652Z,8.67
2019-04-28T21:23:30.238Z,8.59
2019-04-28T21:26:00.732Z,8.55
2019-04-28T21:28:31.247Z,8.58
2019-04-28T21:31:01.725Z,8.50
2019-04-28T21:33:32.217Z,8.46
2019-04-28T21:36:02.690Z,8.48
2019-04-28T21:38:33.172Z,8.52
2019-04-28T21:41:03.675Z,8.41
2019-04-28T21:43:59.049Z,8.45
2019-04-28T21:46:41.270Z,8.34
2019-04-28T21:49:21.284Z,8.27
2019-04-28T21:51:51.813Z,8.30
2019-04-28T21:54:22.313Z,8.32
2019-04-28T21:56:52.782Z,8.22
2019-04-28T21:59:23.282Z,8.20
2019-04-28T22:01:53.759Z,8.13
2019-04-28T22:04:24.221Z,8.17
2019-04-28T22:06:54.731Z,8.19
2019-04-28T22:09:25.348Z,8.15
2019-04-28T22:11:55.908Z,8.16
2019-04-28T22:14:26.412Z,8.14
2019-04-28T22:16:56.889Z,8.12
2019-04-28T22:19:27.355Z,8.10
2019-04-28T22:21:57.861Z,8.03
2019-04-28T22:24:36.837Z,8.01
2019-04-28T22:27:08.667Z,8.06
2019-04-28T22:29:39.188Z,8.04
2019-04-28T22:32:09.654Z,7.92
2019-04-28T22:34:40.170Z,7.91
2019-04-28T22:37:10.566Z,7.94
2019-04-28T22:39:41.060Z,7.93
2019-04-28T22:42:11.625Z,7.83
2019-04-28T22:44:42.109Z,7.92
2019-04-28T22:47:12.590Z,7.88
2019-04-28T22:49:43.077Z,7.87
2019-04-28T22:52:13.542Z,7.82
2019-04-28T22:55:02.962Z,7.83
2019-04-28T22:57:58.419Z,7.89
2019-04-28T23:00:52.575Z,7.93
2019-04-28T23:03:40.695Z,7.80
2019-04-28T23:06:11.163Z,7.73
2019-04-28T23:08:41.747Z,7.72
2019-04-28T23:11:12.249Z,7.66
2019-04-28T23:13:42.755Z,7.71
2019-04-28T23:16:13.362Z,7.77
2019-04-28T23:18:43.955Z,7.77
2019-04-28T23:21:35.359Z,7.73
2019-04-28T23:24:05.832Z,7.73
2019-04-28T23:26:36.298Z,7.68
2019-04-28T23:29:06.888Z,7.78
2019-04-28T23:31:37.357Z,7.75
2019-04-28T23:34:07.827Z,7.89
2019-04-28T23:36:38.418Z,7.83
2019-04-28T23:39:09.372Z,7.80
2019-04-28T23:41:55.243Z,7.86
2019-04-28T23:44:25.751Z,7.79
2019-04-28T23:46:59.852Z,7.74
2019-04-28T23:49:31.651Z,7.76
2019-04-28T23:52:19.956Z,7.75
2019-04-28T23:54:51.920Z,7.74
2019-04-28T23:57:22.412Z,7.74
2019-04-28T23:59:52.978Z,7.67
